Impacts TAF Board
For situational awareness. Not to be used for flight planning purposes.
IDs:

KMOB - Mobile Rgnl, AL, US

Issued at 0520 UTC 03 Jul 2022
Updated at 0558 UTC 03 Jul 2022
Potential Impact None Slight Moderate High
Time0456Z 03/06Z 03/07Z 03/08Z 03/09Z 03/10Z 03/11Z 03/12Z 03/13Z 03/14Z 03/15Z 03/16Z 03/17Z 03/18Z>>
Type OBS PRVL PRVL PRVL PRVL PRVL PRVL PRVL PRVL PRVL PRVL PRVL
  [PRB30]  
PRVL
  [PRB30]  
PRVL
  [PRB30]  
VIS 10 >6 >6 >6 >6 >6 >6 >6 >6 >6 6 6
  [4]  
6
  [4]  
6
  [4]  
CIG -- 200 200 200 200 200 200 80 80 80 90 90
  [20]  
90
  [20]  
90
  [20]  
Cover CLR BKN BKN BKN BKN BKN BKN BKN BKN BKN BKN BKN
  [BKN]  
BKN
  [BKN]  
BKN
  [BKN]  
FltCat VFR VFR VFR VFR VFR VFR VFR VFR VFR VFR VFR VFR
  [MVFR]  
VFR
  [MVFR]  
VFR
  [MVFR]  
WX -- -- -- -- -- -- -- VCTS VCTS VCTS SHRA VCTS SHRA VCTS
  [TSRA]  
SHRA VCTS
  [TSRA]  
SHRA VCTS
  [TSRA]  
WDir 150 VRB VRB VRB VRB VRB VRB VRB VRB VRB 170 170
[170]
170
[170]
170
[170]
WSpd 3 4 4 4 4 4 4 4 4 4 7 7
  [7]  
7
  [7]  
7
  [7]  
WGst -- -- -- -- -- -- -- -- -- -- -- --
  [--]  
--
  [--]  
--
  [--]  
WSHgt -- -- -- -- -- -- -- -- -- -- -- --
[--]
--
[--]
--
[--]
WSDir -- -- -- -- -- -- -- -- -- -- -- --
[--]
--
[--]
--
[--]
WSSpd -- -- -- -- -- -- -- -- -- -- -- --
[--]
--
[--]
--
[--]
Raw TAF
KMOB 030520Z 0306/0406 VRB04KT P6SM FEW030 SCT100 BKN200
  FM031200 VRB04KT P6SM VCTS SCT020CB BKN080
  FM031500 17007KT 6SM SHRA VCTS SCT020CB BKN090
  PROB30 0316/0322 4SM TSRA BKN020CB
  FM040100 20005KT P6SM VCSH FEW030 BKN200


Raw METAR
KMOB 030456Z AUTO 15003KT 10SM CLR 26/24 A3004 RMK AO2 SLP169 T02610239 $
KMOB 030356Z 14005KT 10SM BKN250 27/24 A3005 RMK AO2 SLP171 T02670244 $
KMOB 030256Z 15003KT 10SM BKN250 27/24 A3005 RMK AO2 SLP172 T02670244 51007 $

METAR Board
Radar Display
Forecast Discussion
For situational awareness. Not to be used for flight planning purposes.